Time;durP1;ratioP1;P1;durP2;ratioP2;P2;SDS_P1;SDS_P2;PMS_P1;PMS_P2;Temp;Humidity;BMP_temperature;BMP_pressure;BME280_temperature;BME280_humidity;BME280_pressure;Samples;Min_cycle;Max_cycle;Signal;HPM_P1;HPM_P2
2022/10/18 00:01:33;;;;;;;31.38;7.32;;;17.50;92.00;;;;;;5010290;28;20048;-67
2022/10/18 00:03:58;;;;;;;39.20;10.05;;;17.50;92.00;;;;;;5011804;28;20034;-66
2022/10/18 00:06:24;;;;;;;35.15;9.70;;;17.50;92.00;;;;;;5001721;28;20153;-66
2022/10/18 00:08:49;;;;;;;35.05;8.80;;;17.50;92.00;;;;;;5008470;28;20018;-65
2022/10/18 00:11:15;;;;;;;26.58;9.15;;;17.50;92.00;;;;;;5009931;28;20500;-65
2022/10/18 00:13:41;;;;;;;14.10;7.85;;;17.50;92.00;;;;;;5010724;28;20028;-65
2022/10/18 00:16:11;;;;;;;10.00;6.78;;;17.50;92.00;;;;;;5015381;28;20030;-65
2022/10/18 00:18:37;;;;;;;11.50;8.18;;;17.50;92.00;;;;;;5001609;28;20031;-65
2022/10/18 00:21:07;;;;;;;14.02;9.07;;;17.50;91.90;;;;;;4991593;28;20129;-65
2022/10/18 00:23:34;;;;;;;16.05;9.60;;;17.60;92.00;;;;;;5001279;28;20025;-65
2022/10/18 00:26:12;;;;;;;17.33;9.70;;;17.60;91.90;;;;;;5000710;28;20036;-65
2022/10/18 00:28:38;;;;;;;14.02;7.63;;;17.50;91.90;;;;;;5002338;28;20030;-65
2022/10/18 00:31:22;;;;;;;21.52;8.05;;;17.50;91.90;;;;;;5009260;28;20084;-66
2022/10/18 00:33:53;;;;;;;26.48;7.65;;;17.60;92.00;;;;;;5005721;28;20026;-65
2022/10/18 00:36:19;;;;;;;25.23;7.22;;;17.60;92.00;;;;;;5005498;28;20026;-65
2022/10/18 00:38:46;;;;;;;22.02;7.18;;;17.60;91.90;;;;;;5007086;28;20058;-65
2022/10/18 00:41:20;;;;;;;31.58;7.72;;;17.60;92.10;;;;;;5009574;28;20105;-64
2022/10/18 00:44:11;;;;;;;25.60;6.65;;;17.60;91.90;;;;;;5007145;28;20081;-64
2022/10/18 00:46:42;;;;;;;20.00;7.28;;;17.60;91.80;;;;;;4998693;28;20037;-65
2022/10/18 00:49:22;;;;;;;18.33;7.63;;;17.60;91.80;;;;;;5006267;28;20101;-65
2022/10/18 00:51:56;;;;;;;11.50;7.68;;;17.60;91.80;;;;;;5008719;28;20018;-65
2022/10/18 00:54:23;;;;;;;11.32;8.10;;;17.60;91.80;;;;;;5008963;28;20579;-65
2022/10/18 00:56:49;;;;;;;9.50;7.22;;;17.60;91.80;;;;;;5008877;28;20067;-65
2022/10/18 00:59:16;;;;;;;9.60;7.70;;;17.60;91.80;;;;;;4999094;28;20063;-65
2022/10/18 01:01:42;;;;;;;13.40;8.30;;;17.60;91.80;;;;;;4995501;28;20030;-65
2022/10/18 01:04:08;;;;;;;11.02;8.00;;;17.60;91.80;;;;;;5008503;28;20156;-65
2022/10/18 01:06:57;;;;;;;11.30;8.35;;;17.70;91.80;;;;;;5008737;28;20451;-65
2022/10/18 01:09:40;;;;;;;12.05;9.00;;;17.60;91.80;;;;;;5008380;28;20041;-66
2022/10/18 01:12:27;;;;;;;11.80;8.95;;;17.70;91.70;;;;;;5010364;28;20022;-65
2022/10/18 01:15:03;;;;;;;12.05;8.65;;;17.70;91.70;;;;;;5017975;28;20034;-65
2022/10/18 01:18:03;;;;;;;16.27;8.75;;;17.70;91.70;;;;;;5030011;28;20048;-65
2022/10/18 01:20:56;;;;;;;11.02;8.48;;;17.70;91.70;;;;;;5007722;28;20037;-66
2022/10/18 01:23:28;;;;;;;11.13;8.35;;;17.70;91.70;;;;;;5008663;28;20041;-65
2022/10/18 01:26:16;;;;;;;11.75;8.80;;;17.60;91.70;;;;;;5008789;28;20125;-65
2022/10/18 01:28:51;;;;;;;12.65;8.77;;;17.70;91.70;;;;;;5007935;28;20040;-65
2022/10/18 01:31:42;;;;;;;11.73;8.90;;;17.60;91.60;;;;;;5014319;28;20014;-66
2022/10/18 01:34:10;;;;;;;12.13;8.73;;;17.60;91.60;;;;;;5010555;28;20140;-65
2022/10/18 01:36:39;;;;;;;11.77;9.07;;;17.60;91.50;;;;;;5013983;28;20022;-66
2022/10/18 01:39:13;;;;;;;13.18;9.35;;;17.60;91.50;;;;;;5013218;28;20030;-66
2022/10/18 01:41:42;;;;;;;13.02;9.75;;;17.60;91.50;;;;;;5014932;28;20022;-67
2022/10/18 01:44:13;;;;;;;13.10;10.18;;;17.60;91.50;;;;;;5013299;28;20507;-66
2022/10/18 01:46:40;;;;;;;13.70;9.48;;;17.60;91.50;;;;;;5013355;28;20399;-64
2022/10/18 01:49:06;;;;;;;13.65;9.55;;;17.60;91.50;;;;;;5011348;28;20193;-64
2022/10/18 01:51:32;;;;;;;15.15;9.90;;;17.60;91.50;;;;;;5015862;28;20022;-63
2022/10/18 01:53:59;;;;;;;13.80;9.18;;;17.60;91.50;;;;;;5015197;28;20029;-64
2022/10/18 01:56:45;;;;;;;12.80;10.00;;;17.60;91.50;;;;;;5014233;28;20149;-66
2022/10/18 01:59:23;;;;;;;14.15;8.65;;;17.60;91.50;;;;;;5014240;28;20500;-65
2022/10/18 02:02:10;;;;;;;14.80;8.40;;;17.60;91.50;;;;;;5013305;28;20048;-64
2022/10/18 02:04:58;;;;;;;12.60;8.68;;;17.60;91.50;;;;;;5015409;28;20030;-64
2022/10/18 02:07:35;;;;;;;16.10;9.07;;;17.60;91.50;;;;;;5013910;28;20384;-64
2022/10/18 02:10:09;;;;;;;12.07;8.25;;;17.50;91.40;;;;;;5012256;28;20027;-64
2022/10/18 02:12:39;;;;;;;12.63;8.27;;;17.50;91.40;;;;;;5011359;28;20018;-65
2022/10/18 02:15:06;;;;;;;11.20;8.27;;;17.50;91.40;;;;;;5009649;28;20025;-65
2022/10/18 02:17:32;;;;;;;11.88;8.07;;;17.50;91.50;;;;;;5016511;28;20041;-66
2022/10/18 02:20:00;;;;;;;11.55;8.05;;;17.50;91.40;;;;;;5015996;28;20026;-66
2022/10/18 02:22:29;;;;;;;13.55;8.75;;;17.50;91.30;;;;;;4996904;28;20072;-66
2022/10/18 02:24:58;;;;;;;17.10;7.93;;;17.50;91.30;;;;;;5013370;28;20060;-66
2022/10/18 02:27:24;;;;;;;9.80;7.97;;;17.50;91.30;;;;;;5014282;28;20052;-67
2022/10/18 02:29:50;;;;;;;8.82;7.38;;;17.40;91.20;;;;;;5011036;28;20472;-66
2022/10/18 02:32:26;;;;;;;11.48;7.90;;;17.40;91.30;;;;;;5010133;28;20030;-65
2022/10/18 02:35:18;;;;;;;13.80;7.95;;;17.40;91.30;;;;;;5014271;28;20037;-66
2022/10/18 02:37:47;;;;;;;15.43;7.70;;;17.30;91.30;;;;;;5012620;28;20416;-66
2022/10/18 02:40:14;;;;;;;12.65;7.80;;;17.30;91.30;;;;;;5014309;28;20022;-67
2022/10/18 02:42:46;;;;;;;23.13;7.53;;;17.30;91.30;;;;;;5009794;28;20037;-66
2022/10/18 02:45:12;;;;;;;13.85;7.85;;;17.20;91.30;;;;;;5010952;28;20089;-66
2022/10/18 02:47:38;;;;;;;25.30;7.65;;;17.20;91.30;;;;;;5009181;28;20396;-64
2022/10/18 02:50:04;;;;;;;48.88;8.77;;;17.20;91.20;;;;;;5010886;28;20032;-65
2022/10/18 02:52:30;;;;;;;19.13;6.63;;;17.20;91.20;;;;;;5010897;28;20014;-64
2022/10/18 02:54:55;;;;;;;21.90;7.53;;;17.20;91.20;;;;;;5011135;28;20156;-65
2022/10/18 02:57:21;;;;;;;27.00;7.43;;;17.20;91.20;;;;;;5006648;28;20030;-66
2022/10/18 02:59:46;;;;;;;13.15;7.38;;;17.20;91.20;;;;;;5009623;28;20117;-65
2022/10/18 03:02:12;;;;;;;19.38;8.68;;;17.10;91.20;;;;;;5011323;28;20029;-65
2022/10/18 03:04:38;;;;;;;11.63;7.35;;;17.10;91.20;;;;;;5010373;28;20022;-65
2022/10/18 03:07:04;;;;;;;9.93;6.85;;;17.10;91.20;;;;;;5010417;28;20026;-66
2022/10/18 03:09:29;;;;;;;20.33;8.27;;;17.10;91.20;;;;;;5007985;28;20022;-65
2022/10/18 03:11:55;;;;;;;10.68;8.55;;;17.10;91.20;;;;;;5010990;28;20388;-65
2022/10/18 03:14:20;;;;;;;15.40;7.78;;;17.10;91.20;;;;;;5011010;28;20034;-65
2022/10/18 03:16:46;;;;;;;20.35;8.25;;;17.10;91.10;;;;;;5008081;28;20034;-65
2022/10/18 03:19:11;;;;;;;14.73;7.63;;;17.00;91.20;;;;;;5008616;28;20109;-65
2022/10/18 03:21:37;;;;;;;13.07;7.88;;;17.00;91.20;;;;;;5010358;28;20040;-64
2022/10/18 03:24:02;;;;;;;12.15;7.88;;;17.00;91.10;;;;;;5010407;28;20041;-64
2022/10/18 03:26:28;;;;;;;17.52;7.72;;;17.00;91.10;;;;;;5010286;28;20025;-64
2022/10/18 03:28:54;;;;;;;11.07;7.50;;;17.00;91.20;;;;;;5010917;28;20034;-64
2022/10/18 03:31:19;;;;;;;14.77;7.95;;;16.90;91.20;;;;;;5009097;28;20057;-63
2022/10/18 03:33:45;;;;;;;9.02;7.32;;;16.90;91.20;;;;;;5009135;28;20050;-66
2022/10/18 03:36:11;;;;;;;17.95;8.30;;;16.90;91.20;;;;;;5010032;28;20030;-65
2022/10/18 03:38:37;;;;;;;12.43;7.40;;;16.90;91.30;;;;;;5010659;28;20025;-65
2022/10/18 03:41:03;;;;;;;17.90;7.70;;;16.90;91.20;;;;;;5007598;28;20034;-65
2022/10/18 03:43:28;;;;;;;25.30;7.82;;;16.90;91.20;;;;;;5010357;28;20444;-65
2022/10/18 03:45:54;;;;;;;22.65;7.32;;;16.90;91.20;;;;;;5009658;28;20049;-65
2022/10/18 03:48:20;;;;;;;22.48;7.00;;;16.90;91.20;;;;;;5008595;28;20026;-65
2022/10/18 03:50:45;;;;;;;12.98;6.53;;;16.90;91.20;;;;;;5008490;28;20146;-65
2022/10/18 03:53:11;;;;;;;12.23;6.90;;;16.90;91.20;;;;;;5009337;28;20093;-65
2022/10/18 03:55:37;;;;;;;25.45;7.65;;;16.90;91.20;;;;;;5010334;28;20148;-65
2022/10/18 03:58:02;;;;;;;26.88;7.93;;;16.90;91.10;;;;;;5008490;28;20018;-64
2022/10/18 04:00:28;;;;;;;9.95;7.22;;;16.80;91.10;;;;;;5006851;28;20096;-64
2022/10/18 04:02:54;;;;;;;11.70;7.07;;;16.80;91.10;;;;;;5016704;28;20030;-64
2022/10/18 04:05:19;;;;;;;12.50;7.00;;;16.80;91.50;;;;;;5013786;28;20026;-64
2022/10/18 04:07:45;;;;;;;11.55;6.70;;;16.80;91.20;;;;;;5008623;28;20025;-63
2022/10/18 04:10:10;;;;;;;12.93;6.78;;;16.80;91.20;;;;;;5003681;28;20018;-64
2022/10/18 04:12:36;;;;;;;15.10;7.13;;;16.80;91.20;;;;;;5003753;28;20026;-64
2022/10/18 04:15:02;;;;;;;15.43;7.18;;;16.80;91.10;;;;;;5011205;28;20057;-65
2022/10/18 04:17:27;;;;;;;12.35;6.45;;;16.70;91.10;;;;;;5013033;28;20045;-65
2022/10/18 04:19:53;;;;;;;9.38;6.35;;;16.70;91.10;;;;;;5019738;28;20034;-65
2022/10/18 04:22:18;;;;;;;7.82;5.60;;;16.70;91.10;;;;;;5010202;28;20053;-65
2022/10/18 04:24:44;;;;;;;8.68;6.22;;;16.70;91.20;;;;;;5009529;28;20033;-64
2022/10/18 04:27:10;;;;;;;7.65;6.15;;;16.70;91.20;;;;;;5000210;28;20029;-64
2022/10/18 04:29:35;;;;;;;7.38;6.20;;;16.70;91.10;;;;;;5009413;28;20029;-67
2022/10/18 04:32:01;;;;;;;8.55;6.63;;;16.70;91.10;;;;;;5008768;28;20030;-65
2022/10/18 04:34:26;;;;;;;8.95;7.10;;;16.70;91.10;;;;;;5008158;28;20388;-65
2022/10/18 04:36:53;;;;;;;7.82;6.70;;;16.70;91.00;;;;;;5008973;28;20092;-64
2022/10/18 04:39:18;;;;;;;7.35;6.25;;;16.70;91.00;;;;;;5007465;28;20026;-64
2022/10/18 04:41:44;;;;;;;11.55;6.53;;;16.70;91.00;;;;;;5009885;28;20112;-65
2022/10/18 04:44:11;;;;;;;15.35;6.90;;;16.70;91.00;;;;;;5009357;28;20061;-65
2022/10/18 04:46:36;;;;;;;10.45;6.60;;;16.70;91.00;;;;;;5007543;28;20035;-65
2022/10/18 04:49:02;;;;;;;11.13;5.82;;;16.60;91.00;;;;;;5007301;28;20024;-65
2022/10/18 04:51:28;;;;;;;9.00;6.43;;;16.70;91.00;;;;;;5006215;28;20476;-64
2022/10/18 04:53:54;;;;;;;12.52;7.00;;;16.60;91.00;;;;;;5006444;28;20033;-65
2022/10/18 04:56:20;;;;;;;6.70;5.70;;;16.50;91.00;;;;;;5007187;28;20412;-65
2022/10/18 04:58:45;;;;;;;10.35;6.35;;;16.50;91.00;;;;;;5008564;28;20030;-64
2022/10/18 05:01:11;;;;;;;10.98;6.90;;;16.50;91.00;;;;;;5008705;28;20025;-65
2022/10/18 05:03:37;;;;;;;25.75;6.95;;;16.50;91.00;;;;;;5006860;28;20034;-65
2022/10/18 05:06:04;;;;;;;30.35;7.50;;;16.50;91.00;;;;;;5008060;28;21662;-65
2022/10/18 05:08:31;;;;;;;19.25;6.45;;;16.50;91.00;;;;;;5007290;28;20077;-65
2022/10/18 05:10:57;;;;;;;13.10;6.28;;;16.50;90.90;;;;;;5007136;28;20030;-65
2022/10/18 05:13:22;;;;;;;18.67;6.57;;;16.50;91.00;;;;;;5007443;28;20018;-65
2022/10/18 05:15:48;;;;;;;10.95;6.00;;;16.50;91.20;;;;;;5008069;28;20038;-65
2022/10/18 05:18:13;;;;;;;8.93;5.93;;;16.50;91.00;;;;;;5008978;28;20084;-65
2022/10/18 05:20:39;;;;;;;15.30;6.18;;;16.40;90.90;;;;;;5008770;28;20064;-65
2022/10/18 05:23:04;;;;;;;12.05;6.28;;;16.40;90.90;;;;;;5008098;28;20022;-64
2022/10/18 05:25:30;;;;;;;12.15;6.25;;;16.40;90.90;;;;;;5006544;28;20613;-65
2022/10/18 05:27:55;;;;;;;11.32;6.15;;;16.40;91.20;;;;;;5007927;28;20029;-65
2022/10/18 05:30:21;;;;;;;23.17;5.63;;;16.40;91.00;;;;;;5008399;28;20610;-65
2022/10/18 05:32:47;;;;;;;45.03;7.13;;;16.40;91.00;;;;;;5007611;28;20104;-65
2022/10/18 05:35:13;;;;;;;10.00;5.22;;;16.40;91.10;;;;;;5008102;28;20032;-65
2022/10/18 05:37:38;;;;;;;33.80;6.35;;;16.30;90.90;;;;;;5005942;28;20152;-65
2022/10/18 05:40:04;;;;;;;14.77;5.63;;;16.30;90.90;;;;;;5008160;28;20049;-65
2022/10/18 05:42:30;;;;;;;15.73;5.45;;;16.30;90.90;;;;;;5006764;28;20041;-65
2022/10/18 05:44:55;;;;;;;35.03;5.75;;;16.30;90.90;;;;;;5004434;28;20155;-65
2022/10/18 05:47:21;;;;;;;34.72;6.60;;;16.20;90.90;;;;;;5021241;28;20503;-65
2022/10/18 05:49:46;;;;;;;38.40;5.65;;;16.20;90.90;;;;;;5027276;28;20022;-65
2022/10/18 05:52:12;;;;;;;36.20;6.03;;;16.20;90.90;;;;;;5008522;28;20100;-65
2022/10/18 05:54:37;;;;;;;42.65;5.57;;;16.10;90.90;;;;;;5009983;28;20029;-65
2022/10/18 05:57:03;;;;;;;36.55;5.53;;;16.10;91.20;;;;;;5009334;28;20025;-65
2022/10/18 05:59:29;;;;;;;24.00;5.25;;;16.10;90.90;;;;;;5005799;28;20040;-65
2022/10/18 06:01:54;;;;;;;15.15;4.97;;;16.00;90.90;;;;;;5009621;28;20040;-65
2022/10/18 06:04:20;;;;;;;19.17;4.20;;;15.90;90.90;;;;;;5005119;28;20033;-65
2022/10/18 06:06:45;;;;;;;12.57;3.97;;;15.90;91.00;;;;;;5006099;28;20019;-65
2022/10/18 06:09:11;;;;;;;21.08;4.90;;;15.90;91.00;;;;;;4997937;28;20022;-65
2022/10/18 06:11:36;;;;;;;7.63;3.58;;;15.90;91.00;;;;;;5008196;28;20022;-65
2022/10/18 06:14:03;;;;;;;22.48;3.78;;;15.90;91.00;;;;;;5006684;28;21732;-65
2022/10/18 06:16:28;;;;;;;10.80;3.50;;;15.90;91.10;;;;;;5011345;28;20032;-65
2022/10/18 06:18:56;;;;;;;8.50;3.55;;;15.90;91.00;;;;;;5008940;28;20041;-65
2022/10/18 06:21:23;;;;;;;7.32;3.70;;;15.80;91.10;;;;;;5012459;28;20080;-65
2022/10/18 06:23:53;;;;;;;7.47;3.92;;;15.80;91.10;;;;;;5012119;28;20026;-65
2022/10/18 06:26:19;;;;;;;6.10;3.40;;;15.80;91.10;;;;;;5006887;28;20066;-65
2022/10/18 06:28:45;;;;;;;5.18;3.42;;;15.80;91.10;;;;;;5011721;28;20105;-65
2022/10/18 06:31:11;;;;;;;35.97;4.45;;;15.80;91.10;;;;;;5002703;28;20093;-65
2022/10/18 06:33:37;;;;;;;24.13;4.30;;;15.80;91.00;;;;;;5005988;28;20062;-65
2022/10/18 06:36:07;;;;;;;27.08;4.07;;;15.80;91.00;;;;;;5016381;28;20535;-66
2022/10/18 06:38:33;;;;;;;20.02;3.92;;;15.80;91.20;;;;;;5022547;28;20029;-65
2022/10/18 06:40:59;;;;;;;45.63;4.32;;;15.70;91.00;;;;;;5017278;28;20484;-65
2022/10/18 06:43:25;;;;;;;17.48;3.53;;;15.70;91.10;;;;;;5012525;28;20061;-65
2022/10/18 06:45:51;;;;;;;21.00;3.53;;;15.60;91.10;;;;;;5012740;28;20485;-65
2022/10/18 06:48:18;;;;;;;28.13;4.18;;;15.70;91.10;;;;;;5013082;28;20022;-65
2022/10/18 06:50:51;;;;;;;17.08;3.80;;;15.70;91.10;;;;;;5013803;28;20022;-65
2022/10/18 06:53:17;;;;;;;14.00;3.70;;;15.60;91.10;;;;;;5003971;28;20025;-66
2022/10/18 06:55:42;;;;;;;20.25;4.20;;;15.70;91.10;;;;;;5011009;28;20018;-65
2022/10/18 06:58:08;;;;;;;9.57;4.50;;;15.70;91.00;;;;;;5012049;28;20427;-65
2022/10/18 07:00:33;;;;;;;20.55;4.50;;;15.60;91.00;;;;;;5012572;28;20058;-65
2022/10/18 07:02:59;;;;;;;27.33;4.22;;;15.60;91.00;;;;;;5010859;28;20045;-65
2022/10/18 07:05:24;;;;;;;15.63;4.72;;;15.60;91.00;;;;;;5009785;28;20060;-65
2022/10/18 07:07:50;;;;;;;28.15;4.80;;;15.60;91.00;;;;;;5011702;28;20121;-65
2022/10/18 07:10:15;;;;;;;8.75;3.95;;;15.50;91.00;;;;;;5011244;28;20088;-65
2022/10/18 07:12:41;;;;;;;11.93;4.10;;;15.50;90.90;;;;;;5011908;28;20029;-65
2022/10/18 07:15:07;;;;;;;8.63;4.53;;;15.50;91.00;;;;;;5011976;28;20033;-65
2022/10/18 07:17:32;;;;;;;21.40;5.50;;;15.50;91.00;;;;;;5011827;28;20067;-65
2022/10/18 07:19:58;;;;;;;8.70;4.38;;;15.50;90.90;;;;;;5012236;28;20026;-64
2022/10/18 07:22:23;;;;;;;9.80;4.10;;;15.60;90.90;;;;;;5012297;28;20034;-65
2022/10/18 07:24:49;;;;;;;15.23;5.53;;;15.60;90.80;;;;;;5011618;28;20041;-65
2022/10/18 07:27:14;;;;;;;19.75;4.85;;;15.60;90.80;;;;;;5010974;28;20073;-65
2022/10/18 07:29:40;;;;;;;10.02;4.50;;;15.60;90.70;;;;;;5006010;28;20014;-65
2022/10/18 07:32:06;;;;;;;11.45;4.72;;;15.60;90.70;;;;;;5011240;28;20389;-65
2022/10/18 07:34:31;;;;;;;7.00;4.03;;;15.60;90.60;;;;;;5010827;28;20030;-65
2022/10/18 07:36:57;;;;;;;5.10;4.10;;;15.60;90.60;;;;;;5005015;28;20061;-65
2022/10/18 07:39:22;;;;;;;8.68;3.80;;;15.60;90.70;;;;;;5011668;28;20041;-65
2022/10/18 07:41:48;;;;;;;8.20;5.35;;;15.60;90.60;;;;;;5005795;28;20045;-65
2022/10/18 07:44:13;;;;;;;6.95;4.40;;;15.60;90.50;;;;;;5011192;28;20034;-65
2022/10/18 07:46:39;;;;;;;5.43;3.75;;;15.70;90.50;;;;;;5012014;28;20173;-65
2022/10/18 07:49:04;;;;;;;8.60;4.68;;;15.80;90.40;;;;;;5011257;28;20029;-65
2022/10/18 07:51:31;;;;;;;8.05;4.57;;;15.80;90.30;;;;;;5012128;28;20104;-65
2022/10/18 07:53:58;;;;;;;6.97;4.72;;;15.80;90.30;;;;;;5011342;28;20017;-65
2022/10/18 07:56:23;;;;;;;5.93;3.50;;;15.80;90.20;;;;;;5010870;28;20022;-65
2022/10/18 07:58:51;;;;;;;6.90;4.35;;;15.80;90.20;;;;;;5010936;28;20030;-65
2022/10/18 08:01:18;;;;;;;6.53;4.82;;;15.90;90.20;;;;;;5011874;28;20030;-65
2022/10/18 08:03:43;;;;;;;8.23;4.57;;;15.90;90.20;;;;;;5011132;28;20088;-65
2022/10/18 08:06:11;;;;;;;8.75;5.22;;;15.90;90.20;;;;;;5011185;28;20597;-65
2022/10/18 08:08:38;;;;;;;7.35;5.35;;;15.80;90.20;;;;;;5011515;28;20083;-66
2022/10/18 08:11:13;;;;;;;8.07;4.90;;;15.80;90.20;;;;;;5010950;28;20045;-65
2022/10/18 08:13:39;;;;;;;7.68;5.07;;;15.80;90.20;;;;;;5009337;28;20058;-65
2022/10/18 08:16:08;;;;;;;8.05;4.20;;;15.80;90.20;;;;;;5005289;28;20034;-65
2022/10/18 08:18:35;;;;;;;8.57;4.65;;;15.80;90.20;;;;;;5000708;28;20485;-65
2022/10/18 08:21:02;;;;;;;6.88;4.40;;;15.90;90.30;;;;;;5001862;28;20023;-65
2022/10/18 08:23:27;;;;;;;6.28;4.40;;;15.90;90.30;;;;;;5000375;28;20077;-65
2022/10/18 08:25:53;;;;;;;8.35;5.28;;;15.90;90.30;;;;;;5000422;28;20480;-65
2022/10/18 08:28:19;;;;;;;7.93;5.10;;;15.90;90.20;;;;;;5000439;28;20488;-66
2022/10/18 08:30:44;;;;;;;9.13;5.00;;;15.90;90.30;;;;;;5001936;28;20029;-65
2022/10/18 08:33:10;;;;;;;7.18;4.80;;;16.00;90.30;;;;;;5005781;28;20093;-65
2022/10/18 08:35:36;;;;;;;7.30;4.68;;;16.00;90.30;;;;;;5007358;28;20031;-65
2022/10/18 08:38:01;;;;;;;8.27;4.45;;;16.00;90.20;;;;;;5008716;28;20021;-65
2022/10/18 08:40:27;;;;;;;7.28;4.18;;;16.10;90.20;;;;;;5022166;28;20091;-65
2022/10/18 08:43:20;;;;;;;9.55;4.78;;;16.10;90.20;;;;;;5014744;28;20034;-65
2022/10/18 08:45:48;;;;;;;6.20;4.30;;;16.10;90.10;;;;;;5010663;28;20037;-65
2022/10/18 08:48:28;;;;;;;6.07;4.43;;;16.20;90.10;;;;;;5010428;28;20022;-65
2022/10/18 08:50:56;;;;;;;7.47;4.35;;;16.20;90.10;;;;;;5005099;28;20026;-65
2022/10/18 08:53:31;;;;;;;5.18;3.92;;;16.30;90.10;;;;;;5012091;28;20389;-65
2022/10/18 08:56:03;;;;;;;5.82;4.10;;;16.30;90.00;;;;;;5010415;28;20049;-65
2022/10/18 08:58:31;;;;;;;5.10;3.60;;;16.40;90.00;;;;;;5016505;28;20046;-65
2022/10/18 09:01:01;;;;;;;7.53;3.97;;;16.40;89.80;;;;;;5010905;28;20084;-66
2022/10/18 09:03:29;;;;;;;5.65;3.95;;;16.40;89.60;;;;;;5013689;28;20021;-65
2022/10/18 09:06:02;;;;;;;5.40;2.95;;;16.50;89.70;;;;;;5010024;28;20487;-65
2022/10/18 09:08:50;;;;;;;5.57;3.08;;;16.50;89.50;;;;;;5013567;28;20084;-65
2022/10/18 09:11:26;;;;;;;6.70;3.35;;;16.60;89.30;;;;;;5006732;28;20036;-65
2022/10/18 09:13:57;;;;;;;6.63;2.78;;;16.60;89.00;;;;;;5014806;28;20030;-65
2022/10/18 09:16:50;;;;;;;4.72;2.72;;;16.60;88.80;;;;;;5009664;28;20113;-65
2022/10/18 09:19:41;;;;;;;4.68;2.75;;;16.70;88.70;;;;;;5010826;28;20076;-65
2022/10/18 09:22:16;;;;;;;6.57;2.97;;;16.70;88.50;;;;;;5020274;28;20152;-66
2022/10/18 09:24:59;;;;;;;6.50;3.13;;;16.70;88.00;;;;;;5008158;28;20022;-65
2022/10/18 09:27:40;;;;;;;6.85;3.00;;;16.70;88.00;;;;;;5006847;28;20033;-65
2022/10/18 09:30:21;;;;;;;5.50;2.30;;;16.80;87.90;;;;;;5008392;28;20021;-65
2022/10/18 09:32:54;;;;;;;6.43;2.42;;;16.80;87.60;;;;;;5017510;28;20053;-66
2022/10/18 09:35:24;;;;;;;4.85;2.17;;;16.90;87.20;;;;;;5010412;28;20025;-65
2022/10/18 09:37:54;;;;;;;4.50;1.80;;;16.90;87.10;;;;;;5008347;28;20502;-66
2022/10/18 09:40:25;;;;;;;3.88;1.60;;;16.90;86.80;;;;;;5007276;28;20117;-65
2022/10/18 09:42:54;;;;;;;5.13;1.60;;;17.00;86.40;;;;;;5009708;28;20034;-66
2022/10/18 09:45:31;;;;;;;4.90;1.70;;;17.00;86.10;;;;;;5008792;28;20530;-65
2022/10/18 09:48:40;;;;;;;5.25;1.73;;;17.10;85.80;;;;;;5009085;28;20033;-65
2022/10/18 09:51:16;;;;;;;3.97;1.50;;;17.20;85.30;;;;;;5010315;28;20160;-65
2022/10/18 09:53:52;;;;;;;4.03;1.45;;;17.20;84.70;;;;;;5012516;28;20476;-65
2022/10/18 09:56:29;;;;;;;4.85;1.50;;;17.20;84.30;;;;;;5014033;28;20029;-65
2022/10/18 09:58:55;;;;;;;4.05;1.45;;;17.30;84.00;;;;;;5013461;28;20665;-65
2022/10/18 10:01:27;;;;;;;3.90;1.25;;;17.30;83.90;;;;;;5013824;28;20033;-65
2022/10/18 10:03:53;;;;;;;4.90;1.20;;;17.40;83.60;;;;;;5009763;28;20104;-65
2022/10/18 10:06:27;;;;;;;2.17;1.30;;;17.50;83.50;;;;;;5008181;28;20033;-65
2022/10/18 10:08:58;;;;;;;3.67;1.50;;;17.50;83.10;;;;;;5007748;28;20026;-65
2022/10/18 10:11:34;;;;;;;3.15;1.08;;;17.60;82.40;;;;;;5007661;28;20034;-65
2022/10/18 10:14:14;;;;;;;5.22;1.48;;;17.60;82.10;;;;;;5002660;28;20053;-66
2022/10/18 10:16:57;;;;;;;4.65;1.33;;;17.70;81.70;;;;;;5006138;28;20121;-66
2022/10/18 10:19:34;;;;;;;4.25;1.50;;;17.70;80.90;;;;;;5008561;28;20034;-66
2022/10/18 10:22:11;;;;;;;3.83;1.30;;;17.80;80.40;;;;;;5005321;28;20040;-66
2022/10/18 10:24:49;;;;;;;4.50;1.30;;;17.80;80.00;;;;;;5004733;28;20476;-66
2022/10/18 10:27:29;;;;;;;4.47;1.60;;;17.80;79.50;;;;;;5011635;28;20032;-66
2022/10/18 10:30:00;;;;;;;4.55;1.48;;;17.80;78.90;;;;;;5005680;28;20017;-66
2022/10/18 10:32:29;;;;;;;3.80;1.45;;;17.90;78.70;;;;;;5010018;28;20026;-66
2022/10/18 10:34:56;;;;;;;3.15;1.30;;;17.90;78.40;;;;;;5013526;28;20433;-66
2022/10/18 10:37:28;;;;;;;3.92;1.13;;;18.00;78.20;;;;;;5013333;28;20030;-66
2022/10/18 10:40:12;;;;;;;5.40;1.15;;;18.00;77.80;;;;;;5013473;28;20030;-66
2022/10/18 10:42:56;;;;;;;5.18;1.33;;;18.00;77.00;;;;;;5011841;28;20405;-66
2022/10/18 10:45:23;;;;;;;4.90;1.10;;;18.10;76.70;;;;;;4994133;28;20030;-66
2022/10/18 10:47:52;;;;;;;3.47;1.00;;;18.20;76.50;;;;;;5013257;28;20014;-66
2022/10/18 10:50:24;;;;;;;4.88;2.42;;;18.20;76.40;;;;;;5013283;28;20025;-67
2022/10/18 10:52:50;;;;;;;2.10;1.27;;;18.30;76.00;;;;;;5011499;28;20025;-66
2022/10/18 10:55:19;;;;;;;4.22;1.33;;;18.30;75.60;;;;;;5011692;28;20112;-66
2022/10/18 10:57:49;;;;;;;3.90;1.15;;;18.30;74.80;;;;;;5007803;28;20031;-66
2022/10/18 11:00:36;;;;;;;4.45;1.20;;;18.40;74.00;;;;;;5012171;28;20667;-66
2022/10/18 11:03:10;;;;;;;2.15;0.90;;;18.40;73.80;;;;;;5006793;28;20057;-65
2022/10/18 11:05:45;;;;;;;3.20;1.00;;;18.40;73.50;;;;;;5012611;28;20075;-66
2022/10/18 11:08:14;;;;;;;2.08;0.93;;;18.50;73.40;;;;;;4994151;28;20038;-67
2022/10/18 11:11:08;;;;;;;2.28;1.00;;;18.50;73.00;;;;;;5000202;28;20105;-66
2022/10/18 11:13:49;;;;;;;4.50;1.40;;;18.60;72.70;;;;;;4993264;28;20041;-66
2022/10/18 11:16:38;;;;;;;3.92;1.20;;;18.60;71.10;;;;;;5005641;28;20021;-66
2022/10/18 11:19:38;;;;;;;3.55;1.10;;;18.70;71.00;;;;;;4993313;28;20039;-67
2022/10/18 11:22:08;;;;;;;4.43;0.95;;;18.80;70.80;;;;;;5012295;28;20124;-65
2022/10/18 11:24:35;;;;;;;4.40;1.02;;;18.80;70.70;;;;;;5012448;28;20072;-66
2022/10/18 11:27:27;;;;;;;6.50;1.50;;;18.90;70.40;;;;;;5011838;28;20029;-67
2022/10/18 11:30:01;;;;;;;3.38;1.20;;;18.80;69.70;;;;;;5011575;28;20476;-66
2022/10/18 11:32:27;;;;;;;2.75;0.93;;;18.80;69.50;;;;;;5004207;28;20025;-66
2022/10/18 11:35:13;;;;;;;3.83;0.98;;;18.80;69.10;;;;;;5011999;28;20033;-66
2022/10/18 11:38:13;;;;;;;3.22;0.80;;;18.90;68.30;;;;;;5009585;28;20038;-66
2022/10/18 11:41:16;;;;;;;2.97;0.90;;;19.00;67.60;;;;;;5012220;28;20069;-65
2022/10/18 11:43:52;;;;;;;3.95;0.93;;;19.00;67.40;;;;;;5012038;28;20034;-65
2022/10/18 11:46:26;;;;;;;4.32;1.50;;;19.10;67.40;;;;;;5006496;28;20018;-65
2022/10/18 11:48:58;;;;;;;1.77;0.82;;;19.20;66.90;;;;;;5011870;28;20129;-66
2022/10/18 11:51:46;;;;;;;1.73;0.60;;;19.30;67.20;;;;;;5010362;28;20026;-65
2022/10/18 11:54:15;;;;;;;3.13;0.90;;;19.40;66.90;;;;;;5012034;28;20085;-66
2022/10/18 11:57:11;;;;;;;4.97;1.25;;;19.40;66.50;;;;;;5010378;28;20025;-66
2022/10/18 11:59:47;;;;;;;3.15;0.90;;;19.50;65.30;;;;;;5011885;28;20473;-65
2022/10/18 12:02:13;;;;;;;4.10;1.05;;;19.50;65.10;;;;;;5005672;28;20482;-65
2022/10/18 12:04:44;;;;;;;2.38;0.90;;;19.60;65.00;;;;;;4990774;28;20089;-66
2022/10/18 12:07:15;;;;;;;3.97;1.20;;;19.70;65.60;;;;;;5006260;28;20036;-67
2022/10/18 12:09:44;;;;;;;4.82;1.00;;;19.80;65.20;;;;;;5011749;28;20028;-67
2022/10/18 12:12:30;;;;;;;6.28;1.38;;;19.90;65.00;;;;;;5010998;28;20050;-66
2022/10/18 12:14:59;;;;;;;3.75;1.30;;;20.00;64.60;;;;;;5010708;28;20347;-64
2022/10/18 12:17:39;;;;;;;5.15;1.40;;;20.00;63.90;;;;;;5011035;28;20074;-67
2022/10/18 12:20:13;;;;;;;4.18;1.13;;;20.10;63.70;;;;;;5011436;28;20362;-66
2022/10/18 12:22:45;;;;;;;5.25;1.30;;;20.30;63.30;;;;;;5011337;28;20088;-65
2022/10/18 12:25:13;;;;;;;3.75;1.05;;;20.30;62.60;;;;;;5011119;28;20133;-66
2022/10/18 12:27:55;;;;;;;4.25;1.13;;;20.30;62.10;;;;;;5010631;28;20105;-66
2022/10/18 12:30:58;;;;;;;4.07;1.38;;;20.40;61.90;;;;;;5011254;28;20026;-66
2022/10/18 12:33:29;;;;;;;3.00;1.10;;;20.50;62.20;;;;;;5005166;28;20044;-66
2022/10/18 12:36:19;;;;;;;3.17;0.88;;;20.60;62.20;;;;;;5010924;28;20523;-66
2022/10/18 12:38:48;;;;;;;4.78;1.00;;;20.70;61.50;;;;;;5011049;28;20032;-66
2022/10/18 12:41:22;;;;;;;3.53;1.02;;;20.80;60.20;;;;;;5011186;28;20026;-67
2022/10/18 12:43:52;;;;;;;2.80;0.80;;;20.80;60.20;;;;;;5011129;28;20061;-67
2022/10/18 12:46:18;;;;;;;3.40;1.15;;;21.00;60.40;;;;;;5011196;28;20360;-67
2022/10/18 12:49:00;;;;;;;2.78;0.90;;;21.00;59.90;;;;;;5021902;28;20037;-67
2022/10/18 12:51:26;;;;;;;3.95;0.93;;;21.10;60.00;;;;;;5026416;28;20524;-66
2022/10/18 12:54:01;;;;;;;4.40;1.20;;;21.20;60.00;;;;;;5011353;28;20117;-67
2022/10/18 12:56:26;;;;;;;3.55;1.10;;;21.30;60.00;;;;;;4991845;28;20034;-66
2022/10/18 12:59:12;;;;;;;3.45;0.95;;;21.30;59.20;;;;;;5007419;28;20040;-67